createdAt,value
2023-05-15T00:02:22.560Z,4.69
2023-05-15T00:04:49.532Z,4.68
2023-05-15T00:07:16.802Z,4.63
2023-05-15T00:09:43.603Z,4.57
2023-05-15T00:12:10.551Z,4.52
2023-05-15T00:14:37.498Z,4.50
2023-05-15T00:17:04.320Z,4.48
2023-05-15T00:19:31.038Z,4.46
2023-05-15T00:21:57.832Z,4.41
2023-05-15T00:24:24.559Z,4.40
2023-05-15T00:26:51.310Z,4.36
2023-05-15T00:29:18.112Z,4.35
2023-05-15T00:31:45.002Z,4.32
2023-05-15T00:34:11.858Z,4.15
2023-05-15T00:36:38.636Z,4.21
2023-05-15T00:39:05.368Z,4.21
2023-05-15T00:41:33.606Z,4.18
2023-05-15T00:44:02.415Z,4.14
2023-05-15T00:46:31.744Z,4.12
2023-05-15T00:48:59.009Z,4.08
2023-05-15T00:51:26.983Z,4.05
2023-05-15T00:53:54.988Z,4.04
2023-05-15T00:56:22.446Z,4.04
2023-05-15T00:58:50.759Z,4.06
2023-05-15T01:01:18.112Z,4.05
2023-05-15T01:03:44.969Z,4.04
2023-05-15T01:06:12.363Z,4.01
2023-05-15T01:08:49.898Z,3.97
2023-05-15T01:11:18.130Z,3.93
2023-05-15T01:13:44.957Z,3.94
2023-05-15T01:16:11.986Z,4.01
2023-05-15T01:18:39.015Z,4.01
2023-05-15T01:21:28.811Z,4.02
2023-05-15T01:24:11.818Z,3.95
2023-05-15T01:26:50.430Z,3.91
2023-05-15T01:29:27.499Z,4.02
2023-05-15T01:32:07.070Z,3.98
2023-05-15T01:34:54.023Z,3.94
2023-05-15T01:37:26.080Z,3.88
2023-05-15T01:39:58.273Z,3.84
2023-05-15T01:42:30.930Z,3.71
2023-05-15T01:45:02.135Z,3.63
2023-05-15T01:47:36.773Z,3.59
2023-05-15T01:50:05.443Z,3.52
2023-05-15T01:52:38.828Z,3.45
2023-05-15T01:55:08.703Z,3.38
2023-05-15T01:57:37.274Z,3.31
2023-05-15T02:00:05.222Z,3.24
2023-05-15T02:02:33.292Z,3.21
2023-05-15T02:05:01.536Z,3.16
2023-05-15T02:07:29.052Z,3.15
2023-05-15T02:09:57.838Z,3.13
2023-05-15T02:12:24.795Z,3.16
2023-05-15T02:14:52.993Z,3.20
2023-05-15T02:17:21.670Z,3.21
2023-05-15T02:19:48.496Z,3.21
2023-05-15T02:22:15.235Z,3.22
2023-05-15T02:24:42.100Z,3.17
2023-05-15T02:27:17.699Z,3.00
2023-05-15T02:30:11.994Z,3.20
2023-05-15T02:33:01.184Z,3.14
2023-05-15T02:35:56.640Z,3.15
2023-05-15T02:38:31.192Z,3.11
2023-05-15T02:41:00.862Z,3.08
2023-05-15T02:43:28.753Z,3.04
2023-05-15T02:45:57.169Z,2.96
2023-05-15T02:48:24.809Z,3.01
2023-05-15T02:50:52.986Z,3.02
2023-05-15T02:53:19.772Z,2.98
2023-05-15T02:55:46.554Z,2.96
2023-05-15T02:58:13.510Z,2.96
2023-05-15T03:00:40.362Z,2.94
2023-05-15T03:03:07.114Z,2.89
2023-05-15T03:05:33.851Z,2.85
2023-05-15T03:08:00.890Z,2.95
2023-05-15T03:10:27.657Z,2.99
2023-05-15T03:12:58.499Z,2.97
2023-05-15T03:15:25.854Z,2.93
2023-05-15T03:17:52.898Z,2.93
2023-05-15T03:20:19.729Z,2.94
2023-05-15T03:22:46.549Z,2.92
2023-05-15T03:25:13.423Z,2.87
2023-05-15T03:27:40.168Z,2.83
2023-05-15T03:30:07.651Z,2.77
2023-05-15T03:32:34.652Z,2.73
2023-05-15T03:35:01.434Z,2.69
2023-05-15T03:37:28.773Z,2.60
2023-05-15T03:39:55.635Z,2.61
2023-05-15T03:42:23.825Z,2.61
2023-05-15T03:44:51.350Z,2.68
2023-05-15T03:47:18.179Z,2.71
2023-05-15T03:49:46.091Z,2.73
2023-05-15T03:52:13.213Z,2.73
2023-05-15T03:54:40.428Z,2.68
2023-05-15T03:57:07.896Z,2.66
2023-05-15T03:59:34.712Z,2.63
2023-05-15T04:02:04.975Z,2.60
2023-05-15T04:04:32.852Z,2.57
2023-05-15T04:07:00.716Z,2.57
2023-05-15T04:09:27.536Z,2.54
2023-05-15T04:11:54.309Z,2.51
2023-05-15T04:14:21.053Z,2.45
2023-05-15T04:16:47.917Z,2.40
2023-05-15T04:19:15.036Z,2.34
2023-05-15T04:21:41.899Z,2.31
2023-05-15T04:24:08.751Z,2.32
2023-05-15T04:26:35.527Z,2.31
2023-05-15T04:29:04.688Z,2.36
2023-05-15T04:31:32.523Z,2.39
2023-05-15T04:33:59.447Z,2.41
2023-05-15T04:36:26.395Z,2.43
2023-05-15T04:38:53.223Z,2.49
2023-05-15T04:41:19.999Z,2.49
2023-05-15T04:43:46.747Z,2.52
2023-05-15T04:46:13.676Z,2.57
2023-05-15T04:48:40.466Z,2.50
2023-05-15T04:51:07.788Z,2.47
2023-05-15T04:53:34.661Z,2.44
2023-05-15T04:56:01.468Z,2.40
2023-05-15T04:58:28.266Z,2.38
2023-05-15T05:00:55.105Z,2.44
2023-05-15T05:03:21.868Z,2.50
2023-05-15T05:05:48.914Z,2.53
2023-05-15T05:08:15.800Z,2.56
2023-05-15T05:10:42.563Z,2.59
2023-05-15T05:13:09.308Z,2.61
2023-05-15T05:15:37.326Z,2.64
2023-05-15T05:18:04.415Z,2.75
2023-05-15T05:20:31.173Z,2.88
2023-05-15T05:22:57.939Z,3.03
2023-05-15T05:25:24.792Z,3.18
2023-05-15T05:27:52.245Z,3.34
2023-05-15T05:30:19.070Z,3.56
2023-05-15T05:32:45.873Z,3.71
2023-05-15T05:35:12.639Z,3.59
2023-05-15T05:37:41.268Z,3.81
2023-05-15T05:40:09.063Z,3.85
2023-05-15T05:42:35.844Z,4.06
2023-05-15T05:45:02.589Z,4.56
2023-05-15T05:47:29.361Z,5.17
2023-05-15T05:49:56.076Z,6.02
2023-05-15T05:52:23.039Z,6.79
2023-05-15T05:54:49.856Z,7.15
2023-05-15T05:57:16.707Z,7.29
2023-05-15T05:59:43.636Z,7.30
2023-05-15T06:02:11.413Z,7.23
2023-05-15T06:04:38.314Z,7.14
2023-05-15T06:07:05.258Z,7.07
2023-05-15T06:09:32.795Z,7.05
2023-05-15T06:12:00.811Z,7.03
2023-05-15T06:14:27.658Z,7.04
2023-05-15T06:16:54.490Z,7.28
2023-05-15T06:19:22.091Z,7.62
2023-05-15T06:21:48.973Z,7.81
2023-05-15T06:24:15.711Z,7.88
2023-05-15T06:26:42.640Z,7.93
2023-05-15T06:29:09.424Z,7.96
2023-05-15T06:31:36.277Z,8.04
2023-05-15T06:34:03.063Z,8.15
2023-05-15T06:36:30.309Z,8.33
2023-05-15T06:38:57.041Z,8.64
2023-05-15T06:41:23.820Z,9.16
2023-05-15T06:43:50.676Z,9.56
2023-05-15T06:46:19.235Z,9.86
2023-05-15T06:48:46.093Z,10.22
2023-05-15T06:51:12.972Z,10.88
2023-05-15T06:53:42.031Z,11.13
2023-05-15T06:56:09.152Z,11.09
2023-05-15T06:58:35.915Z,10.95
2023-05-15T07:01:04.173Z,10.94
2023-05-15T07:03:30.940Z,11.50
2023-05-15T07:05:57.716Z,12.20
2023-05-15T07:08:24.457Z,12.83
2023-05-15T07:10:51.575Z,13.98
2023-05-15T07:13:19.986Z,14.74
2023-05-15T07:15:47.192Z,15.07
2023-05-15T07:18:14.038Z,15.10
2023-05-15T07:20:40.823Z,15.03
2023-05-15T07:23:07.532Z,14.72
2023-05-15T07:25:34.423Z,14.37
2023-05-15T07:28:01.193Z,14.01
2023-05-15T07:30:28.127Z,13.91
2023-05-15T07:32:55.123Z,13.84
2023-05-15T07:35:22.147Z,14.48
2023-05-15T07:37:49.062Z,15.24
2023-05-15T07:40:15.861Z,15.45
2023-05-15T07:42:45.693Z,15.43
2023-05-15T07:45:12.696Z,15.38
2023-05-15T07:47:46.013Z,15.52
2023-05-15T07:50:13.700Z,15.66
2023-05-15T07:52:41.388Z,15.72
2023-05-15T07:55:12.626Z,15.67
2023-05-15T07:57:40.074Z,15.22
2023-05-15T08:00:13.713Z,15.27
2023-05-15T08:02:41.350Z,15.69
2023-05-15T08:05:08.460Z,16.52
2023-05-15T08:07:35.680Z,17.68
2023-05-15T08:10:04.467Z,18.55
2023-05-15T08:12:31.279Z,19.00
2023-05-15T08:14:58.035Z,18.83
2023-05-15T08:17:25.568Z,18.59
2023-05-15T08:19:52.518Z,18.50
2023-05-15T08:22:19.338Z,18.35
2023-05-15T08:24:46.405Z,18.72
2023-05-15T08:27:13.306Z,18.69
2023-05-15T08:29:40.414Z,19.05
2023-05-15T08:32:09.013Z,18.68
2023-05-15T08:34:35.885Z,18.79
2023-05-15T08:37:02.909Z,18.45
2023-05-15T08:39:29.773Z,18.01
2023-05-15T08:42:00.723Z,18.29
2023-05-15T08:44:28.230Z,17.48
2023-05-15T08:46:55.950Z,17.88
2023-05-15T08:49:31.920Z,17.31
2023-05-15T08:51:59.034Z,16.70
2023-05-15T08:54:26.102Z,17.07
2023-05-15T08:56:53.621Z,16.98
2023-05-15T08:59:21.022Z,16.59
2023-05-15T09:01:47.858Z,16.32
2023-05-15T09:04:14.734Z,15.90
2023-05-15T09:06:42.124Z,16.16
2023-05-15T09:09:09.637Z,16.39
2023-05-15T09:11:38.028Z,16.63
2023-05-15T09:14:04.895Z,16.60
2023-05-15T09:16:31.651Z,15.85
2023-05-15T09:19:00.307Z,15.62
2023-05-15T09:21:29.836Z,15.18
2023-05-15T09:24:19.951Z,14.66
2023-05-15T09:26:48.402Z,14.40
2023-05-15T09:29:18.939Z,14.29
2023-05-15T09:31:48.949Z,14.19
2023-05-15T09:34:16.107Z,14.51
2023-05-15T09:36:45.061Z,15.12
2023-05-15T09:39:12.288Z,15.30
2023-05-15T09:41:44.115Z,15.66
2023-05-15T09:44:25.415Z,15.85
2023-05-15T09:46:52.726Z,16.06
2023-05-15T09:49:20.362Z,16.02
2023-05-15T09:51:48.752Z,15.60
2023-05-15T09:54:17.540Z,15.21
2023-05-15T09:56:48.050Z,15.08
2023-05-15T09:59:16.728Z,15.69
2023-05-15T10:01:46.765Z,16.38
2023-05-15T10:04:14.302Z,16.81
2023-05-15T10:06:46.578Z,17.08
2023-05-15T10:09:14.425Z,17.08
2023-05-15T10:11:46.244Z,17.12
2023-05-15T10:14:14.558Z,16.67
2023-05-15T10:16:42.168Z,16.94
2023-05-15T10:19:11.028Z,17.56
2023-05-15T10:21:40.159Z,18.23
2023-05-15T10:24:08.434Z,18.03
2023-05-15T10:26:43.067Z,18.29
2023-05-15T10:29:09.797Z,17.70
2023-05-15T10:31:36.997Z,17.59
2023-05-15T10:34:06.015Z,17.68
2023-05-15T10:36:34.737Z,17.69
2023-05-15T10:39:03.304Z,17.88
2023-05-15T10:41:31.259Z,18.27
2023-05-15T10:44:00.493Z,18.75
2023-05-15T10:46:29.170Z,18.63
2023-05-15T10:48:56.486Z,19.00
2023-05-15T10:51:31.891Z,18.69
2023-05-15T10:54:00.972Z,18.79
2023-05-15T10:56:31.269Z,18.74
2023-05-15T10:58:58.517Z,18.98
2023-05-15T11:01:33.404Z,19.26
2023-05-15T11:04:22.893Z,19.41
2023-05-15T11:06:50.970Z,19.96
2023-05-15T11:09:36.844Z,19.89
2023-05-15T11:12:05.795Z,19.18
2023-05-15T11:14:42.700Z,18.33
2023-05-15T11:17:12.103Z,17.79
2023-05-15T11:19:49.355Z,17.28
2023-05-15T11:22:23.154Z,16.74
2023-05-15T11:24:50.224Z,16.25
2023-05-15T11:27:19.651Z,16.35
2023-05-15T11:30:11.501Z,16.58
2023-05-15T11:32:54.544Z,16.76
2023-05-15T11:35:42.393Z,17.02
2023-05-15T11:38:17.650Z,17.47
2023-05-15T11:41:00.353Z,18.06
2023-05-15T11:43:27.944Z,18.01
2023-05-15T11:45:59.045Z,17.87
2023-05-15T11:48:30.543Z,17.52
2023-05-15T11:50:57.498Z,17.61
2023-05-15T11:53:25.012Z,17.60
2023-05-15T11:55:54.901Z,16.81
2023-05-15T11:58:23.555Z,17.02
2023-05-15T12:00:52.273Z,16.95
2023-05-15T12:03:25.307Z,17.24
2023-05-15T12:05:59.665Z,18.10
2023-05-15T12:08:32.522Z,18.97
2023-05-15T12:11:00.787Z,19.45
2023-05-15T12:13:27.794Z,18.95
2023-05-15T12:15:56.008Z,18.85
2023-05-15T12:18:23.174Z,17.92
2023-05-15T12:20:52.816Z,17.45
2023-05-15T12:23:22.862Z,17.36
2023-05-15T12:25:55.122Z,17.79
2023-05-15T12:28:22.802Z,17.93
2023-05-15T12:30:50.022Z,17.48
2023-05-15T12:33:17.350Z,17.41
2023-05-15T12:35:52.554Z,17.67
2023-05-15T12:38:22.382Z,17.75
2023-05-15T12:40:53.829Z,17.71
2023-05-15T12:43:23.703Z,17.82
2023-05-15T12:45:53.212Z,18.32
2023-05-15T12:48:20.648Z,18.80
2023-05-15T12:50:48.038Z,19.02
2023-05-15T12:53:16.386Z,18.90
2023-05-15T12:55:46.845Z,18.79
2023-05-15T12:58:18.728Z,18.40
2023-05-15T13:00:48.040Z,18.00
2023-05-15T13:03:15.553Z,18.35
2023-05-15T13:05:45.621Z,17.73
2023-05-15T13:08:17.731Z,16.35
2023-05-15T13:10:45.691Z,15.88
2023-05-15T13:13:12.702Z,15.68
2023-05-15T13:15:46.273Z,15.32
2023-05-15T13:18:15.150Z,14.96
2023-05-15T13:20:51.802Z,15.04
2023-05-15T13:23:21.461Z,15.08
2023-05-15T13:25:48.205Z,15.39
2023-05-15T13:28:16.204Z,15.75
2023-05-15T13:30:43.202Z,15.71
2023-05-15T13:33:12.578Z,15.94
2023-05-15T13:35:40.429Z,15.86
2023-05-15T13:38:10.350Z,16.16
2023-05-15T13:40:38.692Z,16.39
2023-05-15T13:43:08.732Z,16.52
2023-05-15T13:45:35.526Z,16.48
2023-05-15T13:48:02.429Z,16.51
2023-05-15T13:50:29.296Z,16.50
2023-05-15T13:52:56.193Z,16.62
2023-05-15T13:55:23.508Z,16.66
2023-05-15T13:57:51.523Z,16.53
2023-05-15T14:00:19.842Z,16.15
2023-05-15T14:02:46.799Z,16.29
2023-05-15T14:05:15.300Z,16.40
2023-05-15T14:07:42.832Z,16.44
2023-05-15T14:10:10.523Z,16.89
2023-05-15T14:12:38.380Z,17.27
2023-05-15T14:15:05.991Z,17.07
2023-05-15T14:17:32.935Z,17.09
2023-05-15T14:19:59.742Z,17.04
2023-05-15T14:22:26.588Z,17.20
2023-05-15T14:24:53.719Z,17.51
2023-05-15T14:27:21.025Z,18.00
2023-05-15T14:29:49.352Z,17.76
2023-05-15T14:32:17.175Z,17.47
2023-05-15T14:34:44.446Z,17.12
2023-05-15T14:37:11.320Z,17.09
2023-05-15T14:39:38.104Z,16.79
2023-05-15T14:42:06.381Z,16.74
2023-05-15T14:44:33.919Z,16.25
2023-05-15T14:47:16.942Z,16.02
2023-05-15T14:49:43.750Z,16.08
2023-05-15T14:52:12.309Z,15.80
2023-05-15T14:54:39.823Z,15.88
2023-05-15T14:57:07.463Z,16.01
2023-05-15T14:59:34.351Z,16.23
2023-05-15T15:02:01.265Z,16.17
2023-05-15T15:04:30.604Z,16.34
2023-05-15T15:06:57.553Z,16.53
2023-05-15T15:09:25.483Z,16.41
2023-05-15T15:11:53.174Z,16.39
2023-05-15T15:14:20.047Z,16.27
2023-05-15T15:16:46.928Z,16.19
2023-05-15T15:19:16.104Z,16.15
2023-05-15T15:21:44.329Z,16.52
2023-05-15T15:24:11.241Z,16.67
2023-05-15T15:26:38.015Z,16.82
2023-05-15T15:29:04.747Z,17.20
2023-05-15T15:31:32.040Z,17.95
2023-05-15T15:33:59.482Z,18.54
2023-05-15T15:36:26.324Z,18.15
2023-05-15T15:38:53.433Z,18.48
2023-05-15T15:41:21.676Z,18.79
2023-05-15T15:43:48.551Z,18.19
2023-05-15T15:46:15.648Z,18.41
2023-05-15T15:48:42.444Z,18.63
2023-05-15T15:51:09.344Z,18.12
2023-05-15T15:53:36.180Z,17.77
2023-05-15T15:56:03.039Z,17.53
2023-05-15T15:58:30.103Z,17.51
2023-05-15T16:00:57.827Z,17.59
2023-05-15T16:03:24.911Z,17.08
2023-05-15T16:05:51.959Z,16.93
2023-05-15T16:08:18.867Z,16.56
2023-05-15T16:10:45.790Z,16.31
2023-05-15T16:13:12.551Z,16.23
2023-05-15T16:15:39.345Z,16.67
2023-05-15T16:18:06.181Z,17.19
2023-05-15T16:20:35.111Z,17.13
2023-05-15T16:23:02.227Z,17.11
2023-05-15T16:25:29.010Z,17.34
2023-05-15T16:27:55.792Z,17.66
2023-05-15T16:30:24.643Z,17.71
2023-05-15T16:32:55.246Z,17.97
2023-05-15T16:35:22.376Z,18.17
2023-05-15T16:37:49.299Z,18.18
2023-05-15T16:40:16.176Z,18.14
2023-05-15T16:42:43.255Z,17.99
2023-05-15T16:45:10.234Z,17.63
2023-05-15T16:47:39.299Z,17.43
2023-05-15T16:50:07.306Z,16.92
2023-05-15T16:52:34.124Z,16.48
2023-05-15T16:55:00.925Z,16.38
2023-05-15T16:57:27.768Z,15.76
2023-05-15T16:59:55.060Z,15.60
2023-05-15T17:02:21.859Z,15.39
2023-05-15T17:04:48.767Z,15.30
2023-05-15T17:07:15.524Z,15.18
2023-05-15T17:09:44.569Z,14.99
2023-05-15T17:12:11.848Z,14.82
2023-05-15T17:14:38.663Z,14.79
2023-05-15T17:17:05.406Z,14.72
2023-05-15T17:19:35.131Z,14.86
2023-05-15T17:22:01.972Z,15.06
2023-05-15T17:24:42.242Z,15.23
2023-05-15T17:27:16.580Z,15.35
2023-05-15T17:29:43.421Z,15.52
2023-05-15T17:32:10.829Z,15.35
2023-05-15T17:34:37.864Z,15.45
2023-05-15T17:37:04.868Z,15.38
2023-05-15T17:39:31.612Z,15.53
2023-05-15T17:41:58.399Z,15.63
2023-05-15T17:44:29.834Z,15.70
2023-05-15T17:46:57.942Z,15.70
2023-05-15T17:49:25.109Z,15.66
2023-05-15T17:51:52.162Z,15.60
2023-05-15T17:54:19.234Z,15.42
2023-05-15T17:56:46.206Z,15.25
2023-05-15T17:59:13.020Z,15.07
2023-05-15T18:01:40.076Z,14.96
2023-05-15T18:04:06.888Z,14.99
2023-05-15T18:06:36.407Z,14.95
2023-05-15T18:09:03.416Z,15.03
2023-05-15T18:11:30.241Z,15.07
2023-05-15T18:13:57.084Z,14.87
2023-05-15T18:16:24.094Z,15.02
2023-05-15T18:18:52.264Z,15.06
2023-05-15T18:21:19.275Z,15.15
2023-05-15T18:23:46.138Z,15.09
2023-05-15T18:26:13.045Z,15.08
2023-05-15T18:28:39.819Z,15.06
2023-05-15T18:31:06.803Z,14.99
2023-05-15T18:33:34.281Z,14.97
2023-05-15T18:36:01.086Z,14.75
2023-05-15T18:38:28.227Z,14.71
2023-05-15T18:40:55.190Z,14.70
2023-05-15T18:43:21.920Z,14.53
2023-05-15T18:45:48.689Z,14.45
2023-05-15T18:48:15.719Z,14.24
2023-05-15T18:50:42.664Z,14.16
2023-05-15T18:53:09.529Z,14.17
2023-05-15T18:55:36.507Z,13.98
2023-05-15T18:58:03.286Z,13.87
2023-05-15T19:00:38.120Z,13.88
2023-05-15T19:03:06.283Z,13.78
2023-05-15T19:05:34.684Z,13.68
2023-05-15T19:08:01.721Z,13.62
2023-05-15T19:10:29.763Z,13.56
2023-05-15T19:12:57.474Z,13.53
2023-05-15T19:15:25.010Z,13.51
2023-05-15T19:17:52.299Z,13.36
2023-05-15T19:20:19.295Z,13.32
2023-05-15T19:22:46.312Z,13.20
2023-05-15T19:25:13.388Z,13.09
2023-05-15T19:27:40.211Z,13.06
2023-05-15T19:30:07.921Z,12.93
2023-05-15T19:32:34.983Z,12.78
2023-05-15T19:35:02.079Z,12.80
2023-05-15T19:37:29.177Z,12.67
2023-05-15T19:39:56.965Z,12.58
2023-05-15T19:42:23.715Z,12.44
2023-05-15T19:44:50.439Z,12.27
2023-05-15T19:47:17.446Z,12.02
2023-05-15T19:49:44.207Z,11.97
2023-05-15T19:52:10.919Z,11.83
2023-05-15T19:54:37.687Z,11.72
2023-05-15T19:57:04.526Z,11.57
2023-05-15T19:59:31.226Z,11.43
2023-05-15T20:01:58.056Z,11.26
2023-05-15T20:04:26.099Z,11.12
2023-05-15T20:06:53.302Z,10.99
2023-05-15T20:09:20.170Z,10.83
2023-05-15T20:11:46.950Z,10.73
2023-05-15T20:14:14.626Z,10.58
2023-05-15T20:16:41.521Z,10.50
2023-05-15T20:19:08.360Z,10.38
2023-05-15T20:21:35.146Z,10.23
2023-05-15T20:24:01.958Z,10.07
2023-05-15T20:26:28.681Z,9.95
2023-05-15T20:28:55.625Z,9.86
2023-05-15T20:31:22.507Z,9.73
2023-05-15T20:33:49.265Z,9.67
2023-05-15T20:36:16.826Z,9.57
2023-05-15T20:38:45.069Z,9.47
2023-05-15T20:41:11.918Z,9.37
2023-05-15T20:43:39.211Z,9.23
2023-05-15T20:46:09.110Z,9.14
2023-05-15T20:48:36.594Z,9.03
2023-05-15T20:51:03.398Z,8.94
2023-05-15T20:53:30.216Z,8.86
2023-05-15T20:55:57.013Z,8.73
2023-05-15T20:58:23.787Z,8.72
2023-05-15T21:00:50.711Z,8.64
2023-05-15T21:03:17.657Z,8.51
2023-05-15T21:05:44.866Z,8.52
2023-05-15T21:08:11.791Z,8.46
2023-05-15T21:10:38.748Z,8.39
2023-05-15T21:13:05.553Z,8.35
2023-05-15T21:15:32.477Z,8.24
2023-05-15T21:17:59.284Z,8.27
2023-05-15T21:20:27.325Z,8.20
2023-05-15T21:22:54.345Z,8.12
2023-05-15T21:25:21.636Z,8.02
2023-05-15T21:27:48.357Z,7.94
2023-05-15T21:30:15.586Z,7.93
2023-05-15T21:32:42.453Z,7.93
2023-05-15T21:35:10.052Z,7.92
2023-05-15T21:37:37.033Z,7.89
2023-05-15T21:40:04.822Z,7.89
2023-05-15T21:42:32.259Z,7.87
2023-05-15T21:44:59.539Z,7.85
2023-05-15T21:47:26.306Z,7.83
2023-05-15T21:49:53.034Z,7.83
2023-05-15T21:52:19.824Z,7.82
2023-05-15T21:54:46.616Z,7.83
2023-05-15T21:57:13.360Z,7.81
2023-05-15T21:59:40.234Z,7.80
2023-05-15T22:02:07.590Z,7.78
2023-05-15T22:04:34.675Z,7.77
2023-05-15T22:07:01.629Z,7.76
2023-05-15T22:09:28.438Z,7.69
2023-05-15T22:11:55.165Z,7.60
2023-05-15T22:14:22.009Z,7.52
2023-05-15T22:16:48.897Z,7.40
2023-05-15T22:19:28.903Z,7.29
2023-05-15T22:21:59.324Z,7.18
2023-05-15T22:24:26.049Z,7.06
2023-05-15T22:26:52.822Z,6.94
2023-05-15T22:29:20.071Z,6.74
2023-05-15T22:31:46.828Z,6.76
2023-05-15T22:34:13.858Z,6.73
2023-05-15T22:36:41.616Z,6.69
2023-05-15T22:39:08.355Z,6.65
2023-05-15T22:41:35.129Z,6.58
2023-05-15T22:44:02.744Z,6.53
2023-05-15T22:46:29.570Z,6.46
2023-05-15T22:48:59.159Z,6.37
2023-05-15T22:51:27.146Z,6.31
2023-05-15T22:53:53.901Z,6.30
2023-05-15T22:56:21.490Z,6.31
2023-05-15T22:58:48.346Z,6.29
2023-05-15T23:01:15.211Z,6.26
2023-05-15T23:03:42.062Z,6.18
2023-05-15T23:06:08.938Z,6.12
2023-05-15T23:08:35.809Z,6.08
2023-05-15T23:11:02.667Z,6.05
2023-05-15T23:13:29.523Z,6.03
2023-05-15T23:15:56.298Z,5.99
2023-05-15T23:18:23.031Z,5.92
2023-05-15T23:20:50.563Z,5.86
2023-05-15T23:23:17.435Z,5.74
2023-05-15T23:25:44.172Z,5.70
2023-05-15T23:28:11.160Z,5.65
2023-05-15T23:30:37.893Z,5.63
2023-05-15T23:33:04.702Z,5.62
2023-05-15T23:35:31.589Z,5.56
2023-05-15T23:37:58.350Z,5.53
2023-05-15T23:40:25.408Z,5.47
2023-05-15T23:42:52.452Z,5.41
2023-05-15T23:45:19.558Z,5.32
2023-05-15T23:47:46.757Z,5.30
2023-05-15T23:50:13.610Z,5.17
2023-05-15T23:52:40.399Z,5.13
2023-05-15T23:55:07.954Z,5.09
2023-05-15T23:57:34.749Z,5.02
